createdAt,value
2023-03-06T00:01:10.125Z,99956.78
2023-03-06T00:03:37.636Z,99956.78
2023-03-06T00:06:04.134Z,99956.13
2023-03-06T00:08:30.612Z,99956.78
2023-03-06T00:10:57.007Z,99954.31
2023-03-06T00:13:23.472Z,99945.16
2023-03-06T00:15:50.135Z,99949.47
2023-03-06T00:18:16.941Z,99950.75
2023-03-06T00:20:43.261Z,99945.28
2023-03-06T00:23:09.754Z,99948.31
2023-03-06T00:25:36.064Z,99940.97
2023-03-06T00:28:02.457Z,99934.56
2023-03-06T00:30:28.965Z,99936.66
2023-03-06T00:32:55.379Z,99934.66
2023-03-06T00:35:21.726Z,99925.34
2023-03-06T00:37:48.191Z,99919.53
2023-03-06T00:40:14.665Z,99915.81
2023-03-06T00:42:41.411Z,99920.56
2023-03-06T00:45:07.847Z,99915.66
2023-03-06T00:47:34.203Z,99907.28
2023-03-06T00:50:00.672Z,99902.47
2023-03-06T00:52:27.265Z,99897.84
2023-03-06T00:54:53.777Z,99894.34
2023-03-06T00:57:20.142Z,99892.97
2023-03-06T00:59:46.514Z,99896.47
2023-03-06T01:02:13.282Z,99890.88
2023-03-06T01:04:39.777Z,99886.53
2023-03-06T01:07:06.384Z,99883.06
2023-03-06T01:09:32.787Z,99878.19
2023-03-06T01:11:59.176Z,99877.94
2023-03-06T01:14:25.508Z,99872.25
2023-03-06T01:16:51.843Z,99869.06
2023-03-06T01:19:18.482Z,99861.28
2023-03-06T01:21:44.926Z,99857.22
2023-03-06T01:24:11.258Z,99860.72
2023-03-06T01:26:37.657Z,99855.91
2023-03-06T01:29:04.036Z,99847.78
2023-03-06T01:31:30.621Z,99844.88
2023-03-06T01:33:57.372Z,99839.19
2023-03-06T01:36:23.695Z,99828.69
2023-03-06T01:38:50.072Z,99825.78
2023-03-06T01:41:16.460Z,99816.38
2023-03-06T01:43:42.824Z,99819.03
2023-03-06T01:46:09.216Z,99816.59
2023-03-06T01:48:35.927Z,99816.00
2023-03-06T01:51:02.270Z,99809.63
2023-03-06T01:53:28.778Z,99807.72
2023-03-06T01:55:55.185Z,99802.06
2023-03-06T01:58:21.623Z,99807.41
2023-03-06T02:00:48.136Z,99808.69
2023-03-06T02:03:17.049Z,99798.53
2023-03-06T02:05:43.790Z,99798.53
2023-03-06T02:08:10.162Z,99796.59
2023-03-06T02:10:36.506Z,99797.41
2023-03-06T02:13:03.224Z,99788.78
2023-03-06T02:15:29.948Z,99799.28
2023-03-06T02:17:56.337Z,99785.88
2023-03-06T02:20:22.699Z,99789.03
2023-03-06T02:22:50.803Z,99792.41
2023-03-06T02:25:17.249Z,99785.78
2023-03-06T02:27:43.643Z,99782.75
2023-03-06T02:30:09.995Z,99778.56
2023-03-06T02:32:36.534Z,99777.16
2023-03-06T02:35:02.864Z,99771.34
2023-03-06T02:37:29.179Z,99763.22
2023-03-06T02:39:55.801Z,99765.53
2023-03-06T02:42:22.173Z,99770.66
2023-03-06T02:44:48.831Z,99755.66
2023-03-06T02:47:15.233Z,99756.47
2023-03-06T02:49:41.664Z,99756.69
2023-03-06T02:52:08.029Z,99754.34
2023-03-06T02:54:34.469Z,99756.13
2023-03-06T02:57:00.914Z,99756.69
2023-03-06T02:59:27.421Z,99747.53
2023-03-06T03:01:53.773Z,99748.91
2023-03-06T03:04:20.109Z,99738.44
2023-03-06T03:06:46.589Z,99740.53
2023-03-06T03:09:12.921Z,99742.16
2023-03-06T03:11:39.261Z,99739.72
2023-03-06T03:14:05.678Z,99733.78
2023-03-06T03:16:32.036Z,99732.50
2023-03-06T03:18:58.713Z,99730.31
2023-03-06T03:21:25.630Z,99725.75
2023-03-06T03:23:52.005Z,99737.75
2023-03-06T03:26:18.975Z,99727.25
2023-03-06T03:28:45.575Z,99729.94
2023-03-06T03:31:12.003Z,99733.91
2023-03-06T03:33:38.314Z,99737.41
2023-03-06T03:36:04.815Z,99729.84
2023-03-06T03:38:31.320Z,99730.22
2023-03-06T03:40:57.586Z,99729.84
2023-03-06T03:43:24.129Z,99732.28
2023-03-06T03:45:50.452Z,99728.00
2023-03-06T03:48:16.926Z,99723.19
2023-03-06T03:50:43.214Z,99713.78
2023-03-06T03:53:09.967Z,99718.34
2023-03-06T03:55:36.349Z,99714.50
2023-03-06T03:58:03.210Z,99712.41
2023-03-06T04:00:29.787Z,99714.75
2023-03-06T04:02:56.190Z,99712.31
2023-03-06T04:05:22.555Z,99705.91
2023-03-06T04:07:49.435Z,99700.31
2023-03-06T04:10:15.679Z,99688.44
2023-03-06T04:12:42.138Z,99687.16
2023-03-06T04:15:08.595Z,99680.75
2023-03-06T04:17:34.962Z,99682.63
2023-03-06T04:20:01.584Z,99682.31
2023-03-06T04:22:27.954Z,99676.13
2023-03-06T04:24:54.435Z,99682.84
2023-03-06T04:27:20.867Z,99677.75
2023-03-06T04:29:47.386Z,99672.06
2023-03-06T04:32:13.997Z,99677.41
2023-03-06T04:34:40.406Z,99682.19
2023-03-06T04:37:06.982Z,99670.91
2023-03-06T04:39:33.317Z,99676.81
2023-03-06T04:41:59.794Z,99681.38
2023-03-06T04:44:26.576Z,99677.88
2023-03-06T04:46:53.362Z,99680.78
2023-03-06T04:49:19.758Z,99678.94
2023-03-06T04:51:46.113Z,99671.16
2023-03-06T04:54:12.538Z,99677.31
2023-03-06T04:56:39.343Z,99672.19
2023-03-06T04:59:05.686Z,99672.19
2023-03-06T05:01:32.101Z,99672.91
2023-03-06T05:03:58.535Z,99671.03
2023-03-06T05:06:25.086Z,99668.38
2023-03-06T05:08:51.374Z,99672.66
2023-03-06T05:11:18.079Z,99671.59
2023-03-06T05:13:44.555Z,99668.59
2023-03-06T05:16:10.938Z,99665.09
2023-03-06T05:18:37.418Z,99660.03
2023-03-06T05:21:03.815Z,99661.03
2023-03-06T05:23:30.346Z,99671.75
2023-03-06T05:25:56.649Z,99669.91
2023-03-06T05:28:23.215Z,99670.13
2023-03-06T05:30:49.648Z,99655.94
2023-03-06T05:33:16.151Z,99664.78
2023-03-06T05:35:43.062Z,99661.53
2023-03-06T05:38:09.469Z,99674.66
2023-03-06T05:40:35.807Z,99673.88
2023-03-06T05:43:02.138Z,99668.75
2023-03-06T05:45:28.426Z,99667.91
2023-03-06T05:47:54.860Z,99668.97
2023-03-06T05:50:21.299Z,99660.38
2023-03-06T05:52:47.733Z,99660.38
2023-03-06T05:55:14.137Z,99665.97
2023-03-06T05:57:40.435Z,99674.31
2023-03-06T06:00:06.908Z,99674.22
2023-03-06T06:02:33.268Z,99672.38
2023-03-06T06:04:59.778Z,99669.09
2023-03-06T06:07:26.113Z,99675.84
2023-03-06T06:09:52.493Z,99672.63
2023-03-06T06:12:18.881Z,99674.47
2023-03-06T06:14:45.590Z,99680.88
2023-03-06T06:17:12.158Z,99677.59
2023-03-06T06:19:38.508Z,99674.94
2023-03-06T06:22:04.862Z,99682.94
2023-03-06T06:24:31.299Z,99684.47
2023-03-06T06:26:57.680Z,99681.09
2023-03-06T06:29:24.279Z,99679.72
2023-03-06T06:31:50.684Z,99688.78
2023-03-06T06:34:17.150Z,99693.78
2023-03-06T06:36:43.660Z,99682.25
2023-03-06T06:39:10.007Z,99687.59
2023-03-06T06:41:53.600Z,99685.53
2023-03-06T06:44:22.842Z,99686.56
2023-03-06T06:47:21.206Z,99692.50
2023-03-06T06:49:35.545Z,99695.75
2023-03-06T06:52:01.865Z,99694.09
2023-03-06T06:54:28.252Z,99696.22
2023-03-06T06:56:54.570Z,99697.59
2023-03-06T06:59:21.215Z,99701.91
2023-03-06T07:01:47.856Z,99699.00
2023-03-06T07:04:14.295Z,99700.88
2023-03-06T07:06:40.678Z,99703.56
2023-03-06T07:09:07.296Z,99695.75
2023-03-06T07:11:33.771Z,99702.97
2023-03-06T07:14:00.238Z,99709.38
2023-03-06T07:16:26.608Z,99709.38
2023-03-06T07:18:53.050Z,99704.25
2023-03-06T07:21:19.378Z,99705.06
2023-03-06T07:23:45.699Z,99716.34
2023-03-06T07:26:11.990Z,99707.47
2023-03-06T07:28:51.616Z,99720.06
2023-03-06T07:31:19.231Z,99721.91
2023-03-06T07:33:45.648Z,99722.75
2023-03-06T07:36:13.779Z,99730.75
2023-03-06T07:38:40.406Z,99720.28
2023-03-06T07:41:06.750Z,99725.41
2023-03-06T07:43:33.756Z,99729.59
2023-03-06T07:46:00.181Z,99727.16
2023-03-06T07:48:26.844Z,99727.97
2023-03-06T07:50:53.186Z,99733.31
2023-03-06T07:53:19.616Z,99728.53
2023-03-06T07:55:46.088Z,99731.44
2023-03-06T07:58:12.591Z,99730.06
2023-03-06T08:00:39.377Z,99733.56
2023-03-06T08:03:06.222Z,99738.91
2023-03-06T08:05:32.582Z,99728.09
2023-03-06T08:07:59.103Z,99738.06
2023-03-06T08:10:25.902Z,99729.00
2023-03-06T08:12:52.316Z,99738.31
2023-03-06T08:15:18.683Z,99731.34
2023-03-06T08:17:45.213Z,99728.56
2023-03-06T08:20:11.511Z,99726.44
2023-03-06T08:22:37.943Z,99730.19
2023-03-06T08:25:04.498Z,99736.34
2023-03-06T08:27:30.893Z,99738.78
2023-03-06T08:29:57.443Z,99744.72
2023-03-06T08:32:23.839Z,99734.25
2023-03-06T08:34:50.254Z,99738.44
2023-03-06T08:37:16.940Z,99735.53
2023-03-06T08:39:43.863Z,99728.09
2023-03-06T08:42:10.509Z,99735.75
2023-03-06T08:44:36.993Z,99734.72
2023-03-06T08:47:03.311Z,99733.56
2023-03-06T08:49:29.682Z,99734.13
2023-03-06T08:51:56.124Z,99736.47
2023-03-06T08:54:22.625Z,99730.28
2023-03-06T08:56:48.958Z,99733.56
2023-03-06T08:59:15.475Z,99731.13
2023-03-06T09:01:42.045Z,99733.78
2023-03-06T09:04:08.571Z,99741.00
2023-03-06T09:06:34.987Z,99727.84
2023-03-06T09:09:01.346Z,99733.19
2023-03-06T09:11:27.941Z,99731.34
2023-03-06T09:13:54.411Z,99731.34
2023-03-06T09:16:20.974Z,99733.19
2023-03-06T09:18:47.280Z,99733.06
2023-03-06T09:21:13.615Z,99727.28
2023-03-06T09:23:40.029Z,99728.44
2023-03-06T09:26:06.806Z,99733.78
2023-03-06T09:28:33.472Z,99731.47
2023-03-06T09:30:59.924Z,99730.06
2023-03-06T09:33:26.500Z,99731.47
2023-03-06T09:35:53.503Z,99727.41
2023-03-06T09:38:19.929Z,99731.81
2023-03-06T09:40:46.240Z,99729.97
2023-03-06T09:43:13.176Z,99733.44
2023-03-06T09:45:39.914Z,99728.19
2023-03-06T09:48:06.467Z,99733.53
2023-03-06T09:50:32.946Z,99726.56
2023-03-06T09:52:59.303Z,99725.28
2023-03-06T09:55:25.690Z,99732.97
2023-03-06T09:57:52.379Z,99736.09
2023-03-06T10:00:19.179Z,99739.09
2023-03-06T10:02:45.586Z,99741.34
2023-03-06T10:05:11.980Z,99739.59
2023-03-06T10:07:38.955Z,99738.78
2023-03-06T10:10:05.314Z,99736.44
2023-03-06T10:12:31.722Z,99735.03
2023-03-06T10:14:58.289Z,99733.66
2023-03-06T10:17:24.568Z,99735.75
2023-03-06T10:19:51.068Z,99731.56
2023-03-06T10:22:17.670Z,99735.16
2023-03-06T10:24:44.050Z,99722.84
2023-03-06T10:27:10.477Z,99723.91
2023-03-06T10:29:38.539Z,99726.34
2023-03-06T10:32:05.533Z,99723.91
2023-03-06T10:34:31.925Z,99729.81
2023-03-06T10:36:58.275Z,99721.78
2023-03-06T10:39:24.717Z,99722.84
2023-03-06T10:41:51.226Z,99728.69
2023-03-06T10:44:17.624Z,99729.81
2023-03-06T10:46:44.274Z,99721.22
2023-03-06T10:49:11.050Z,99724.84
2023-03-06T10:51:37.372Z,99725.06
2023-03-06T10:54:03.779Z,99729.47
2023-03-06T10:56:30.151Z,99721.13
2023-03-06T10:58:56.495Z,99723.06
2023-03-06T11:01:23.233Z,99715.06
2023-03-06T11:03:49.756Z,99719.94
2023-03-06T11:06:16.105Z,99716.44
2023-03-06T11:08:43.002Z,99712.03
2023-03-06T11:11:09.733Z,99714.13
2023-03-06T11:13:36.537Z,99711.25
2023-03-06T11:16:02.871Z,99714.03
2023-03-06T11:18:29.250Z,99713.91
2023-03-06T11:20:55.864Z,99714.47
2023-03-06T11:23:22.368Z,99713.09
2023-03-06T11:25:48.897Z,99708.19
2023-03-06T11:28:15.467Z,99709.84
2023-03-06T11:30:41.889Z,99713.22
2023-03-06T11:33:08.282Z,99712.38
2023-03-06T11:35:34.631Z,99714.03
2023-03-06T11:38:01.068Z,99710.41
2023-03-06T11:40:27.436Z,99710.41
2023-03-06T11:42:53.798Z,99702.19
2023-03-06T11:45:20.169Z,99702.41
2023-03-06T11:47:46.745Z,99701.25
2023-03-06T11:50:13.276Z,99699.38
2023-03-06T11:52:39.738Z,99699.13
2023-03-06T11:55:06.143Z,99698.00
2023-03-06T11:57:32.748Z,99697.41
2023-03-06T11:59:59.180Z,99701.00
2023-03-06T12:02:25.574Z,99694.38
2023-03-06T12:04:52.062Z,99695.66
2023-03-06T12:07:18.362Z,99690.31
2023-03-06T12:09:45.015Z,99697.50
2023-03-06T12:12:11.423Z,99700.19
2023-03-06T12:14:37.814Z,99695.06
2023-03-06T12:17:04.274Z,99695.56
2023-03-06T12:19:30.750Z,99692.50
2023-03-06T12:21:57.605Z,99702.28
2023-03-06T12:24:24.026Z,99697.75
2023-03-06T12:26:50.694Z,99701.47
2023-03-06T12:29:17.434Z,99693.22
2023-03-06T12:31:44.218Z,99700.53
2023-03-06T12:34:11.452Z,99695.66
2023-03-06T12:36:38.534Z,99691.47
2023-03-06T12:39:06.256Z,99693.81
2023-03-06T12:41:32.822Z,99695.31
2023-03-06T12:43:59.456Z,99698.69
2023-03-06T12:46:26.735Z,99693.78
2023-03-06T12:48:53.905Z,99692.38
2023-03-06T12:51:21.211Z,99700.06
2023-03-06T12:53:47.931Z,99697.03
2023-03-06T12:56:14.414Z,99703.84
2023-03-06T12:58:41.703Z,99700.81
2023-03-06T13:01:08.140Z,99697.22
2023-03-06T13:03:34.719Z,99702.16
2023-03-06T13:06:02.452Z,99697.50
2023-03-06T13:08:29.296Z,99705.59
2023-03-06T13:10:55.807Z,99705.81
2023-03-06T13:13:22.698Z,99704.84
2023-03-06T13:15:49.763Z,99695.88
2023-03-06T13:18:16.167Z,99692.22
2023-03-06T13:20:43.102Z,99697.66
2023-03-06T13:23:10.396Z,99694.03
2023-03-06T13:25:39.964Z,99691.44
2023-03-06T13:28:07.299Z,99697.13
2023-03-06T13:30:33.950Z,99692.09
2023-03-06T13:33:00.765Z,99692.34
2023-03-06T13:35:28.282Z,99694.03
2023-03-06T13:37:54.965Z,99692.78
2023-03-06T13:40:21.825Z,99685.16
2023-03-06T13:42:48.684Z,99696.81
2023-03-06T13:45:15.617Z,99699.19
2023-03-06T13:48:09.671Z,99699.09
2023-03-06T13:50:29.177Z,99703.06
2023-03-06T13:52:57.346Z,99704.31
2023-03-06T13:55:24.150Z,99704.00
2023-03-06T13:57:51.335Z,99698.09
2023-03-06T14:00:18.086Z,99688.66
2023-03-06T14:02:45.242Z,99694.25
2023-03-06T14:05:11.794Z,99688.31
2023-03-06T14:07:38.718Z,99683.41
2023-03-06T14:10:05.421Z,99682.63
2023-03-06T14:12:32.742Z,99684.47
2023-03-06T14:14:59.383Z,99675.06
2023-03-06T14:17:25.777Z,99678.81
2023-03-06T14:19:52.776Z,99681.47
2023-03-06T14:22:19.296Z,99674.75
2023-03-06T14:24:45.987Z,99674.16
2023-03-06T14:27:12.290Z,99685.91
2023-03-06T14:29:38.679Z,99673.59
2023-03-06T14:32:05.067Z,99679.41
2023-03-06T14:34:32.095Z,99676.72
2023-03-06T14:36:58.438Z,99681.53
2023-03-06T14:39:24.784Z,99685.81
2023-03-06T14:41:51.599Z,99690.34
2023-03-06T14:44:18.018Z,99687.34
2023-03-06T14:46:45.081Z,99684.66
2023-03-06T14:49:11.548Z,99695.03
2023-03-06T14:51:37.948Z,99689.44
2023-03-06T14:54:04.334Z,99690.47
2023-03-06T14:56:31.071Z,99688.53
2023-03-06T14:58:57.482Z,99690.97
2023-03-06T15:01:23.935Z,99684.78
2023-03-06T15:03:50.429Z,99682.59
2023-03-06T15:06:17.621Z,99680.97
2023-03-06T15:08:44.686Z,99686.31
2023-03-06T15:11:11.073Z,99687.13
2023-03-06T15:13:37.488Z,99682.50
2023-03-06T15:16:04.596Z,99692.13
2023-03-06T15:18:30.985Z,99686.00
2023-03-06T15:20:57.305Z,99683.31
2023-03-06T15:23:23.787Z,99676.31
2023-03-06T15:25:50.632Z,99682.94
2023-03-06T15:28:17.243Z,99681.78
2023-03-06T15:30:43.654Z,99685.16
2023-03-06T15:33:10.536Z,99684.84
2023-03-06T15:35:38.189Z,99682.63
2023-03-06T15:38:04.809Z,99680.53
2023-03-06T15:40:31.446Z,99677.28
2023-03-06T15:42:58.438Z,99678.09
2023-03-06T15:45:24.954Z,99677.28
2023-03-06T15:47:51.717Z,99676.44
2023-03-06T15:50:18.127Z,99674.03
2023-03-06T15:52:44.595Z,99672.16
2023-03-06T15:55:11.094Z,99671.78
2023-03-06T15:57:37.585Z,99668.69
2023-03-06T16:00:04.097Z,99667.63
2023-03-06T16:02:30.836Z,99680.03
2023-03-06T16:04:57.710Z,99676.13
2023-03-06T16:07:24.390Z,99684.97
2023-03-06T16:09:50.965Z,99685.53
2023-03-06T16:12:17.499Z,99674.25
2023-03-06T16:14:43.931Z,99676.72
2023-03-06T16:17:10.255Z,99666.56
2023-03-06T16:19:36.597Z,99684.72
2023-03-06T16:22:03.005Z,99673.06
2023-03-06T16:24:29.835Z,99675.06
2023-03-06T16:26:56.196Z,99674.03
2023-03-06T16:29:23.057Z,99686.00
2023-03-06T16:31:49.928Z,99690.50
2023-03-06T16:34:16.717Z,99688.31
2023-03-06T16:36:43.096Z,99690.50
2023-03-06T16:39:09.562Z,99687.50
2023-03-06T16:41:35.973Z,99693.41
2023-03-06T16:44:02.352Z,99690.75
2023-03-06T16:46:29.260Z,99687.13
2023-03-06T16:48:55.908Z,99686.69
2023-03-06T16:51:22.339Z,99690.41
2023-03-06T16:53:48.780Z,99685.28
2023-03-06T16:56:15.417Z,99691.69
2023-03-06T16:58:41.884Z,99683.66
2023-03-06T17:01:08.408Z,99688.19
2023-03-06T17:03:34.781Z,99687.59
2023-03-06T17:06:01.393Z,99689.47
2023-03-06T17:08:27.802Z,99683.81
2023-03-06T17:10:54.388Z,99685.41
2023-03-06T17:13:20.884Z,99684.81
2023-03-06T17:15:47.539Z,99688.88
2023-03-06T17:18:13.951Z,99696.34
2023-03-06T17:20:40.240Z,99700.41
2023-03-06T17:23:07.109Z,99691.81
2023-03-06T17:25:33.706Z,99693.91
2023-03-06T17:28:00.061Z,99699.25
2023-03-06T17:30:26.472Z,99709.72
2023-03-06T17:32:53.186Z,99699.25
2023-03-06T17:35:19.869Z,99706.72
2023-03-06T17:37:46.303Z,99704.50
2023-03-06T17:40:12.582Z,99709.59
2023-03-06T17:42:39.035Z,99710.06
2023-03-06T17:45:05.590Z,99713.34
2023-03-06T17:47:31.992Z,99712.50
2023-03-06T17:49:58.317Z,99717.25
2023-03-06T17:52:24.832Z,99712.97
2023-03-06T17:54:51.554Z,99715.63
2023-03-06T17:57:18.009Z,99715.63
2023-03-06T17:59:44.847Z,99722.88
2023-03-06T18:02:11.246Z,99723.09
2023-03-06T18:04:38.294Z,99715.31
2023-03-06T18:07:04.633Z,99715.31
2023-03-06T18:09:30.937Z,99716.09
2023-03-06T18:11:57.448Z,99720.44
2023-03-06T18:14:23.837Z,99719.03
2023-03-06T18:16:50.189Z,99714.72
2023-03-06T18:19:17.066Z,99715.53
2023-03-06T18:21:43.417Z,99708.56
2023-03-06T18:24:10.104Z,99715.19
2023-03-06T18:26:36.763Z,99705.53
2023-03-06T18:29:03.280Z,99715.19
2023-03-06T18:31:30.473Z,99715.19
2023-03-06T18:33:57.838Z,99707.41
2023-03-06T18:36:24.262Z,99710.88
2023-03-06T18:38:51.103Z,99714.59
2023-03-06T18:41:17.738Z,99711.69
2023-03-06T18:43:44.740Z,99712.97
2023-03-06T18:46:11.148Z,99711.59
2023-03-06T18:48:37.919Z,99712.16
2023-03-06T18:51:04.302Z,99710.75
2023-03-06T18:53:30.759Z,99714.81
2023-03-06T18:55:57.048Z,99720.41
2023-03-06T18:58:23.587Z,99723.34
2023-03-06T19:00:49.964Z,99719.84
2023-03-06T19:03:16.483Z,99720.06
2023-03-06T19:05:42.965Z,99721.94
2023-03-06T19:08:09.643Z,99724.63
2023-03-06T19:10:36.010Z,99722.97
2023-03-06T19:13:02.790Z,99726.13
2023-03-06T19:15:29.164Z,99728.06
2023-03-06T19:17:55.763Z,99733.88
2023-03-06T19:20:22.127Z,99730.63
2023-03-06T19:22:48.788Z,99736.81
2023-03-06T19:25:15.502Z,99739.09
2023-03-06T19:27:42.094Z,99739.72
2023-03-06T19:30:09.541Z,99737.03
2023-03-06T19:32:36.065Z,99733.75
2023-03-06T19:35:02.734Z,99731.31
2023-03-06T19:37:29.124Z,99723.06
2023-03-06T19:39:55.772Z,99726.81
2023-03-06T19:42:22.347Z,99725.75
2023-03-06T19:44:49.089Z,99725.97
2023-03-06T19:47:15.394Z,99727.25
2023-03-06T19:49:41.856Z,99726.22
2023-03-06T19:52:08.745Z,99724.56
2023-03-06T19:54:35.333Z,99726.22
2023-03-06T19:57:02.097Z,99726.47
2023-03-06T19:59:28.842Z,99729.13
2023-03-06T20:01:55.265Z,99725.84
2023-03-06T20:04:21.580Z,99727.47
2023-03-06T20:06:48.178Z,99722.97
2023-03-06T20:09:15.121Z,99724.81
2023-03-06T20:11:41.535Z,99725.84
2023-03-06T20:14:08.194Z,99721.78
2023-03-06T20:16:34.703Z,99722.63
2023-03-06T20:19:01.184Z,99720.63
2023-03-06T20:21:27.691Z,99712.16
2023-03-06T20:23:54.382Z,99712.38
2023-03-06T20:26:20.717Z,99714.00
2023-03-06T20:28:47.523Z,99723.53
2023-03-06T20:31:13.878Z,99710.38
2023-03-06T20:33:40.243Z,99716.22
2023-03-06T20:36:07.401Z,99719.72
2023-03-06T20:38:34.028Z,99720.16
2023-03-06T20:41:00.726Z,99708.88
2023-03-06T20:43:27.712Z,99706.47
2023-03-06T20:45:54.378Z,99712.59
2023-03-06T20:48:20.798Z,99710.97
2023-03-06T20:50:47.110Z,99702.97
2023-03-06T20:53:13.429Z,99702.38
2023-03-06T20:55:39.954Z,99700.75
2023-03-06T20:58:06.438Z,99696.69
2023-03-06T21:00:32.874Z,99694.63
2023-03-06T21:02:59.853Z,99700.97
2023-03-06T21:05:26.312Z,99691.13
2023-03-06T21:07:52.714Z,99689.72
2023-03-06T21:10:18.987Z,99687.88
2023-03-06T21:12:45.797Z,99689.13
2023-03-06T21:15:12.128Z,99691.56
2023-03-06T21:17:39.133Z,99692.63
2023-03-06T21:20:05.512Z,99687.88
2023-03-06T21:22:31.968Z,99688.09
2023-03-06T21:24:58.913Z,99694.47
2023-03-06T21:27:25.314Z,99682.38
2023-03-06T21:29:51.801Z,99678.91
2023-03-06T21:32:18.202Z,99683.44
2023-03-06T21:34:44.612Z,99676.81
2023-03-06T21:37:11.332Z,99680.75
2023-03-06T21:39:37.913Z,99678.91
2023-03-06T21:42:04.336Z,99680.19
2023-03-06T21:44:30.744Z,99681.00
2023-03-06T21:46:57.082Z,99686.56
2023-03-06T21:49:23.687Z,99673.19
2023-03-06T21:51:50.154Z,99662.50
2023-03-06T21:54:16.519Z,99660.91
2023-03-06T21:56:42.909Z,99668.91
2023-03-06T21:59:09.253Z,99661.72
2023-03-06T22:01:35.610Z,99663.00
2023-03-06T22:04:02.066Z,99660.09
2023-03-06T22:06:29.102Z,99654.16
2023-03-06T22:08:55.484Z,99655.78
2023-03-06T22:11:22.264Z,99650.66
2023-03-06T22:13:48.771Z,99657.44
2023-03-06T22:16:15.367Z,99651.72
2023-03-06T22:18:41.907Z,99642.66
2023-03-06T22:21:08.221Z,99635.13
2023-03-06T22:23:35.346Z,99627.09
2023-03-06T22:26:01.875Z,99631.41
2023-03-06T22:28:28.855Z,99623.38
2023-03-06T22:30:55.385Z,99621.75
2023-03-06T22:33:21.804Z,99615.59
2023-03-06T22:35:48.151Z,99603.28
2023-03-06T22:38:14.493Z,99603.28
2023-03-06T22:40:40.901Z,99600.63
2023-03-06T22:43:07.769Z,99596.56
2023-03-06T22:45:34.755Z,99598.78
2023-03-06T22:48:10.432Z,99598.19
2023-03-06T22:50:37.259Z,99591.78
2023-03-06T22:53:03.674Z,99596.56
2023-03-06T22:55:29.974Z,99592.50
2023-03-06T22:57:56.706Z,99586.09
2023-03-06T23:00:23.244Z,99579.13
2023-03-06T23:02:50.340Z,99574.03
2023-03-06T23:05:17.425Z,99582.59
2023-03-06T23:07:44.108Z,99577.25
2023-03-06T23:10:11.147Z,99576.69
2023-03-06T23:12:37.526Z,99572.41
2023-03-06T23:15:04.114Z,99577.50
2023-03-06T23:17:30.550Z,99567.06
2023-03-06T23:19:57.735Z,99570.75
2023-03-06T23:22:24.195Z,99568.91
2023-03-06T23:24:50.789Z,99569.97
2023-03-06T23:27:17.108Z,99571.81
2023-03-06T23:29:43.444Z,99566.25
2023-03-06T23:32:09.823Z,99568.09
2023-03-06T23:34:36.312Z,99558.47
2023-03-06T23:37:02.669Z,99554.16
2023-03-06T23:39:29.346Z,99555.00
2023-03-06T23:41:55.597Z,99541.38
2023-03-06T23:44:22.030Z,99543.72
2023-03-06T23:46:48.501Z,99537.31
2023-03-06T23:49:14.883Z,99536.53
2023-03-06T23:51:41.267Z,99536.53
2023-03-06T23:54:07.641Z,99532.47
2023-03-06T23:56:34.031Z,99529.53
2023-03-06T23:59:00.489Z,99519.91
